Time;durP1;ratioP1;P1;durP2;ratioP2;P2;SDS_P1;SDS_P2;PMS_P1;PMS_P2;Temp;Humidity;BMP_temperature;BMP_pressure;BME280_temperature;BME280_humidity;BME280_pressure;Samples;Min_cycle;Max_cycle;Signal;HPM_P1;HPM_P2
2022/03/17 00:01:26;;;;;;;16.2;10.4;;;;;;;6.32;89.96387;942.2971;;;;
2022/03/17 00:03:51;;;;;;;13.5;9.6;;;;;;;6.17;90.81641;942.2692;;;;
2022/03/17 00:06:24;;;;;;;13.2;9.3;;;;;;;6.08;91.28125;942.2472;;;;
2022/03/17 00:08:52;;;;;;;13;9.5;;;;;;;6.19;91.25977;942.1725;;;;
2022/03/17 00:11:25;;;;;;;11.9;9.2;;;;;;;6.36;90.69727;942.2644;;;;
2022/03/17 00:13:57;;;;;;;11.6;8.2;;;;;;;6.37;91.30762;942.2661;;;;
2022/03/17 00:16:45;;;;;;;14.7;8.3;;;;;;;6.48;91.06055;942.1788;;;;
2022/03/17 00:19:22;;;;;;;14.3;7.5;;;;;;;6.61;90.19434;942.2327;;;;
2022/03/17 00:21:56;;;;;;;13;7.7;;;;;;;6.77;89.2666;942.2427;;;;
2022/03/17 00:24:35;;;;;;;12.2;8;;;;;;;6.75;89.04785;942.1408;;;;
2022/03/17 00:27:03;;;;;;;13.2;7.9;;;;;;;6.82;88.54199;942.2208;;;;
2022/03/17 00:29:42;;;;;;;12.7;7.4;;;;;;;6.71;88.8584;942.2464;;;;
2022/03/17 00:32:15;;;;;;;13.7;8;;;;;;;6.71;88.36133;942.2979;;;;
2022/03/17 00:35:38;;;;;;;17.5;8.3;;;;;;;6.7;88.08594;942.2927;;;;
2022/03/17 00:37:09;;;;;;;13.7;9.3;;;;;;;6.36;89.19336;942.288;;;;
2022/03/17 00:39:38;;;;;;;13.9;9.4;;;;;;;5.95;91.65918;942.2662;;;;
2022/03/17 00:42:03;;;;;;;15;9.2;;;;;;;6.04;91.40723;942.271;;;;
2022/03/17 00:44:30;;;;;;;15.7;9.7;;;;;;;6.02;91.7334;942.205;;;;
2022/03/17 00:46:56;;;;;;;13.9;8.9;;;;;;;6.05;92.12109;942.2484;;;;
2022/03/17 00:49:21;;;;;;;13.1;9.2;;;;;;;6.21;91.01465;942.2389;;;;
2022/03/17 00:51:48;;;;;;;14.4;9.3;;;;;;;6.36;89.98242;942.2136;;;;
2022/03/17 00:54:13;;;;;;;14.5;9.1;;;;;;;6.4;89.33789;942.2032;;;;
2022/03/17 00:56:39;;;;;;;13.7;8.3;;;;;;;6.43;89.24219;942.1575;;;;
2022/03/17 00:59:04;;;;;;;15.6;9;;;;;;;6.47;89.09082;942.1035;;;;
2022/03/17 01:01:31;;;;;;;13.7;9;;;;;;;6.42;89.85059;942.0853;;;;
2022/03/17 01:03:56;;;;;;;15.8;9.3;;;;;;;6.42;89.92773;942.0441;;;;
2022/03/17 01:06:21;;;;;;;13.8;9.5;;;;;;;6.47;89.625;941.9723;;;;
2022/03/17 01:08:47;;;;;;;13.4;8.9;;;;;;;6.41;89.63184;942.0606;;;;
2022/03/17 01:11:12;;;;;;;11.8;8.3;;;;;;;6.54;89.07227;942.0678;;;;
2022/03/17 01:13:38;;;;;;;13;8.6;;;;;;;6.54;88.79883;942.0661;;;;
2022/03/17 01:16:10;;;;;;;14.1;9.3;;;;;;;6.52;88.71582;941.9744;;;;
2022/03/17 01:18:38;;;;;;;15.4;9.4;;;;;;;6.57;88.15039;942.0401;;;;
2022/03/17 01:21:03;;;;;;;14.9;9.6;;;;;;;6.49;88.51953;942.0488;;;;
2022/03/17 01:23:31;;;;;;;13.1;9.1;;;;;;;6.46;88.53516;941.9451;;;;
2022/03/17 01:25:56;;;;;;;15.2;8.9;;;;;;;6.54;88.01855;941.9743;;;;
2022/03/17 01:28:23;;;;;;;14.6;9.6;;;;;;;6.5;88.04492;942.0101;;;;
2022/03/17 01:30:49;;;;;;;14.6;9.4;;;;;;;6.56;87.61621;942.0178;;;;
2022/03/17 01:33:17;;;;;;;14.8;9.1;;;;;;;6.47;88.05078;942.0142;;;;
2022/03/17 01:35:42;;;;;;;14.8;8.6;;;;;;;6.47;88.04883;941.9254;;;;
2022/03/17 01:38:07;;;;;;;12.2;8;;;;;;;6.43;88.51855;942.0436;;;;
2022/03/17 01:40:33;;;;;;;15.1;7.8;;;;;;;6.51;88.11426;942.0342;;;;
2022/03/17 01:42:58;;;;;;;11.8;7.7;;;;;;;6.56;87.82031;941.9408;;;;
2022/03/17 01:45:26;;;;;;;13.4;9.5;;;;;;;6.4;88.44434;942.0853;;;;
2022/03/17 01:47:50;;;;;;;13.4;8.6;;;;;;;6.42;87.95117;942.0964;;;;
2022/03/17 01:50:15;;;;;;;14.8;8.7;;;;;;;6.4;88.27344;942.1057;;;;
2022/03/17 01:52:42;;;;;;;14.2;8.9;;;;;;;6.43;87.83984;942.0344;;;;
2022/03/17 01:55:07;;;;;;;13.6;8.3;;;;;;;6.28;88.125;942.0839;;;;
2022/03/17 01:57:32;;;;;;;12.9;8.4;;;;;;;6.27;88.14355;942.0984;;;;
2022/03/17 01:59:57;;;;;;;13.2;8.8;;;;;;;6.17;88.31934;942.1268;;;;
2022/03/17 02:02:24;;;;;;;12.2;8.7;;;;;;;6.07;88.75977;942.0887;;;;
2022/03/17 02:04:49;;;;;;;14.7;9.5;;;;;;;6.08;88.46777;942.0717;;;;
2022/03/17 02:07:14;;;;;;;14.7;9.6;;;;;;;6.14;88.2207;942.1131;;;;
2022/03/17 02:09:39;;;;;;;18;11.1;;;;;;;6.05;87.88574;942.0938;;;;
2022/03/17 02:14:34;;;;;;;21;14.6;;;;;;;6.04;87.72559;942.0918;;;;
2022/03/17 02:16:58;;;;;;;23.3;16;;;;;;;6;87.6377;942.0544;;;;
2022/03/17 02:19:25;;;;;;;22;15.3;;;;;;;5.93;87.22754;942.0972;;;;
2022/03/17 02:21:50;;;;;;;26.7;17.9;;;;;;;5.82;88.58301;942.1256;;;;
2022/03/17 02:26:42;;;;;;;26.3;18.6;;;;;;;5.76;89.29492;942.1276;;;;
2022/03/17 02:29:08;;;;;;;26.6;18;;;;;;;5.74;89.42676;942.1292;;;;
2022/03/17 02:31:34;;;;;;;25.7;17.4;;;;;;;5.73;89.33203;942.0182;;;;
2022/03/17 02:33:58;;;;;;;25.8;17.3;;;;;;;5.8;89.44922;942.079;;;;
2022/03/17 02:36:25;;;;;;;27.4;17.6;;;;;;;5.82;89.80273;942.0784;;;;
2022/03/17 02:38:50;;;;;;;29.7;17.9;;;;;;;5.74;90.40723;942.0262;;;;
2022/03/17 02:41:21;;;;;;;28.4;18.3;;;;;;;5.71;91.23438;941.9937;;;;
2022/03/17 02:44:26;;;;;;;22.9;16.8;;;;;;;5.77;90.96582;942.002;;;;
2022/03/17 02:46:54;;;;;;;22.6;16.3;;;;;;;5.78;90.86816;942.0325;;;;
2022/03/17 02:49:19;;;;;;;21.3;15.7;;;;;;;5.79;91.06152;942.0201;;;;
2022/03/17 02:51:47;;;;;;;24.9;17.6;;;;;;;5.67;91.49805;941.9813;;;;
2022/03/17 02:54:11;;;;;;;27.1;18.8;;;;;;;5.66;91.2832;942.0151;;;;
2022/03/17 02:56:39;;;;;;;23.9;16.7;;;;;;;5.78;89.95117;942.0529;;;;
2022/03/17 02:59:04;;;;;;;21.7;14.8;;;;;;;5.73;90.10938;942.0355;;;;
2022/03/17 03:01:31;;;;;;;22.1;14.2;;;;;;;5.76;90.15137;942.0025;;;;
2022/03/17 03:03:56;;;;;;;19.2;13.6;;;;;;;5.79;90.03418;942.035;;;;
2022/03/17 03:06:23;;;;;;;18.7;12.6;;;;;;;5.71;90.7832;941.9874;;;;
2022/03/17 03:08:48;;;;;;;16;10.9;;;;;;;5.75;90.73633;942.0227;;;;
2022/03/17 03:11:16;;;;;;;16;10.6;;;;;;;5.74;90.73438;941.9955;;;;
2022/03/17 03:13:43;;;;;;;18.6;10.2;;;;;;;5.74;90.54199;941.9434;;;;
2022/03/17 03:16:11;;;;;;;18.7;10.2;;;;;;;5.73;90.57422;942.0062;;;;
2022/03/17 03:18:36;;;;;;;17.4;9.8;;;;;;;5.68;90.65527;941.9874;;;;
2022/03/17 03:21:06;;;;;;;15.4;8.7;;;;;;;5.7;90.97266;941.9595;;;;
2022/03/17 03:23:29;;;;;;;16.3;9;;;;;;;5.74;90.68945;942.0129;;;;
2022/03/17 03:25:57;;;;;;;16.9;8.9;;;;;;;5.73;90.63086;941.9668;;;;
2022/03/17 03:28:22;;;;;;;14.5;8.5;;;;;;;5.74;91.70508;941.9774;;;;
2022/03/17 03:30:50;;;;;;;12.9;8.3;;;;;;;5.7;91.49414;942.0418;;;;
2022/03/17 03:33:13;;;;;;;15.4;9;;;;;;;5.68;91.81738;942.0323;;;;
2022/03/17 03:38:03;;;;;;;17.1;9.1;;;;;;;5.68;91.76172;942.0544;;;;
2022/03/17 03:40:28;;;;;;;15.5;10.4;;;;;;;5.64;91.71777;942.0616;;;;
2022/03/17 03:42:54;;;;;;;15.3;9.6;;;;;;;5.74;91.09766;942.0502;;;;
2022/03/17 03:45:19;;;;;;;15.5;9.2;;;;;;;5.53;92.6543;942.0489;;;;
2022/03/17 03:47:45;;;;;;;13.9;8.6;;;;;;;5.63;92.12207;942.2051;;;;
2022/03/17 03:50:10;;;;;;;12.2;8.1;;;;;;;5.67;91.97168;942.1764;;;;
2022/03/17 03:52:36;;;;;;;12.2;8.3;;;;;;;5.67;92.43457;942.1861;;;;
2022/03/17 03:55:01;;;;;;;16.2;9.1;;;;;;;5.65;92.71289;942.13;;;;
2022/03/17 03:57:26;;;;;;;16.6;8;;;;;;;5.78;92.38086;942.1021;;;;
2022/03/17 03:59:51;;;;;;;21.6;8.4;;;;;;;5.88;91.63281;942.1696;;;;
2022/03/17 04:02:35;;;;;;;17.1;8.5;;;;;;;5.92;91.31445;942.1848;;;;
2022/03/17 04:05:00;;;;;;;16;8.9;;;;;;;5.93;91.31641;942.1968;;;;
2022/03/17 04:07:26;;;;;;;19;9.2;;;;;;;5.95;90.8916;942.2403;;;;
2022/03/17 04:09:51;;;;;;;19.5;9.1;;;;;;;5.92;91.00977;942.1585;;;;
2022/03/17 04:12:20;;;;;;;15.4;8;;;;;;;5.8;91.60352;942.2274;;;;
2022/03/17 04:14:44;;;;;;;16.7;8.4;;;;;;;5.9;90.85938;942.2142;;;;
2022/03/17 04:17:10;;;;;;;14.2;8.4;;;;;;;5.92;90.07227;942.2408;;;;
2022/03/17 04:19:38;;;;;;;17.6;8;;;;;;;5.91;90.23828;942.1945;;;;
2022/03/17 04:22:03;;;;;;;16.3;8.4;;;;;;;5.85;90.49707;942.2738;;;;
2022/03/17 04:24:33;;;;;;;22;8.8;;;;;;;5.86;90.49902;942.2567;;;;
2022/03/17 04:26:54;;;;;;;18.8;8.9;;;;;;;5.67;91.50879;942.1772;;;;
2022/03/17 04:29:22;;;;;;;19.2;9.1;;;;;;;5.57;92.50391;942.2517;;;;
2022/03/17 04:31:48;;;;;;;18.5;9.3;;;;;;;5.7;91.85352;942.2841;;;;
2022/03/17 04:34:13;;;;;;;17.3;9.1;;;;;;;5.61;92.63574;942.2645;;;;
2022/03/17 04:36:38;;;;;;;19.1;8.9;;;;;;;5.37;94.52344;942.351;;;;
2022/03/17 04:39:04;;;;;;;17.4;9.3;;;;;;;5.44;95.21777;942.3602;;;;
2022/03/17 04:41:29;;;;;;;19.8;8.7;;;;;;;5.51;93.90234;942.342;;;;
2022/03/17 04:43:54;;;;;;;23.4;10.3;;;;;;;5.62;93.61035;942.3699;;;;
2022/03/17 04:46:20;;;;;;;25.2;12;;;;;;;5.69;93.00293;942.3943;;;;
2022/03/17 04:48:46;;;;;;;26.8;12.4;;;;;;;5.76;92.44531;942.3914;;;;
2022/03/17 04:51:11;;;;;;;28.6;13.2;;;;;;;5.82;91.94824;942.3834;;;;
2022/03/17 04:53:37;;;;;;;28.6;13.7;;;;;;;5.81;91.77734;942.3847;;;;
2022/03/17 04:56:02;;;;;;;26.1;13.1;;;;;;;5.75;91.98926;942.413;;;;
2022/03/17 04:58:30;;;;;;;26.1;12.6;;;;;;;5.82;91.51953;942.4182;;;;
2022/03/17 05:00:58;;;;;;;23.1;12;;;;;;;5.86;90.81543;942.3996;;;;
2022/03/17 05:03:24;;;;;;;27.5;12.3;;;;;;;5.9;90.33984;942.4796;;;;
2022/03/17 05:05:52;;;;;;;25.3;13.5;;;;;;;5.8;90.87207;942.4773;;;;
2022/03/17 05:08:17;;;;;;;25.9;12.5;;;;;;;5.82;90.97754;942.4932;;;;
2022/03/17 05:10:44;;;;;;;27.7;12.1;;;;;;;5.82;90.52539;942.3945;;;;
2022/03/17 05:13:09;;;;;;;23.6;11.8;;;;;;;5.73;91.03906;942.588;;;;
2022/03/17 05:15:41;;;;;;;23.6;10.6;;;;;;;5.65;91.29102;942.5346;;;;
2022/03/17 05:18:06;;;;;;;22.4;9.8;;;;;;;5.7;91.5957;942.5181;;;;
2022/03/17 05:20:31;;;;;;;20.6;9.4;;;;;;;5.67;91.23828;942.5652;;;;
2022/03/17 05:22:57;;;;;;;19;9.3;;;;;;;5.76;90.79492;942.539;;;;
2022/03/17 05:25:23;;;;;;;21.1;9.8;;;;;;;5.79;90.80176;942.5337;;;;
2022/03/17 05:27:48;;;;;;;26.4;9.1;;;;;;;5.76;91.03125;942.6078;;;;
2022/03/17 05:30:17;;;;;;;16.2;8.7;;;;;;;5.8;90.49707;942.6598;;;;
2022/03/17 05:32:42;;;;;;;19.6;8.8;;;;;;;5.86;90.22852;942.7054;;;;
2022/03/17 05:35:07;;;;;;;19.8;9.7;;;;;;;5.86;90.29785;942.7159;;;;
2022/03/17 05:37:34;;;;;;;20.9;9.3;;;;;;;5.91;89.86719;942.687;;;;
2022/03/17 05:39:57;;;;;;;22.7;9.7;;;;;;;5.93;90.05176;942.7422;;;;
2022/03/17 05:42:22;;;;;;;18.4;8.3;;;;;;;5.93;90.01758;942.8103;;;;
2022/03/17 05:44:48;;;;;;;16.8;8.8;;;;;;;5.99;89.59961;942.8571;;;;
2022/03/17 05:47:14;;;;;;;22.8;9.6;;;;;;;5.97;89.22461;942.8439;;;;
2022/03/17 05:49:39;;;;;;;20.9;9.9;;;;;;;5.86;88.6582;942.9267;;;;
2022/03/17 05:52:04;;;;;;;18.3;9.3;;;;;;;5.94;88.22363;942.9906;;;;
2022/03/17 05:57:04;;;;;;;25.1;9.6;;;;;;;5.95;88.93848;943.0284;;;;
2022/03/17 06:05:45;;;;;;;21.6;11.2;;;;;;;5.53;89.78711;943.2899;;;;
2022/03/17 06:08:10;;;;;;;17.7;11.6;;;;;;;5.57;90.21289;943.3031;;;;
2022/03/17 06:10:35;;;;;;;17.1;12.1;;;;;;;5.55;90.45508;943.2936;;;;
2022/03/17 06:13:02;;;;;;;18.4;13.1;;;;;;;5.49;90.77051;943.4242;;;;
2022/03/17 06:15:26;;;;;;;18.3;13;;;;;;;5.65;90.3877;943.4691;;;;
2022/03/17 06:17:51;;;;;;;18.4;12.8;;;;;;;5.66;90.00586;943.4638;;;;
2022/03/17 06:20:16;;;;;;;17;13.7;;;;;;;5.72;89.90625;943.5712;;;;
2022/03/17 06:22:41;;;;;;;19.8;13;;;;;;;5.78;89.62598;943.5859;;;;
2022/03/17 06:25:06;;;;;;;17.3;14.3;;;;;;;5.85;89.4248;943.5389;;;;
2022/03/17 06:28:37;;;;;;;20.7;14.9;;;;;;;5.9;89.22168;943.5767;;;;
2022/03/17 06:31:04;;;;;;;21.5;14.5;;;;;;;5.84;89.61426;943.7107;;;;
2022/03/17 06:33:31;;;;;;;19.1;14;;;;;;;5.94;89.23047;943.7195;;;;
2022/03/17 06:35:54;;;;;;;19.7;12.9;;;;;;;6.08;88.58984;943.6353;;;;
2022/03/17 06:38:20;;;;;;;21.2;14.9;;;;;;;6.17;89.00488;943.6897;;;;
2022/03/17 06:40:45;;;;;;;20.1;13.6;;;;;;;6.27;88.67676;943.7466;;;;
2022/03/17 06:43:11;;;;;;;22.5;13.7;;;;;;;6.37;88.00586;943.7863;;;;
2022/03/17 06:45:36;;;;;;;20.5;14.4;;;;;;;6.32;88.62012;943.8116;;;;
2022/03/17 06:48:03;;;;;;;19.6;14;;;;;;;6.45;88.01074;943.8722;;;;
2022/03/17 06:50:28;;;;;;;18.2;13.2;;;;;;;6.47;88.4668;943.8096;;;;
2022/03/17 06:52:54;;;;;;;17.7;13;;;;;;;6.66;88.28223;943.8647;;;;
2022/03/17 06:55:19;;;;;;;15.3;12.5;;;;;;;6.75;87.63281;943.9119;;;;
2022/03/17 06:57:45;;;;;;;18.4;12.4;;;;;;;6.86;87.01172;943.9428;;;;
2022/03/17 07:00:10;;;;;;;17.5;12.5;;;;;;;7.01;86.44043;943.8069;;;;
2022/03/17 07:02:36;;;;;;;16.3;13;;;;;;;7.17;85.60059;943.979;;;;
2022/03/17 07:05:01;;;;;;;16.3;12.8;;;;;;;7.21;84.97168;944.0014;;;;
2022/03/17 07:07:27;;;;;;;17.8;12.8;;;;;;;7.25;84.7334;944.0009;;;;
2022/03/17 07:09:52;;;;;;;18;13.6;;;;;;;7.36;84.56055;944.0277;;;;
2022/03/17 07:12:19;;;;;;;17.7;13.6;;;;;;;7.51;83.83105;944.051;;;;
2022/03/17 07:14:44;;;;;;;16.9;12.3;;;;;;;7.61;82.78418;944.0217;;;;
2022/03/17 07:17:10;;;;;;;17.8;12.5;;;;;;;7.55;83.02344;943.9691;;;;
2022/03/17 07:19:35;;;;;;;15.9;12.1;;;;;;;7.67;82.52441;944.0917;;;;
2022/03/17 07:22:01;;;;;;;18.5;12.5;;;;;;;7.71;83.00977;944.0969;;;;
2022/03/17 07:24:26;;;;;;;16.5;12.8;;;;;;;7.83;82.91895;944.0872;;;;
2022/03/17 07:26:51;;;;;;;17.9;12.2;;;;;;;7.96;82.3418;944.0742;;;;
2022/03/17 07:29:18;;;;;;;16.7;11.5;;;;;;;8.14;81.60352;944.1494;;;;
2022/03/17 07:31:44;;;;;;;21.2;14;;;;;;;8.25;81.14746;944.1383;;;;
2022/03/17 07:34:09;;;;;;;19.3;13;;;;;;;8.37;82.05762;944.1516;;;;
2022/03/17 07:36:35;;;;;;;24.2;13.1;;;;;;;8.48;79.76953;944.1714;;;;
2022/03/17 07:39:03;;;;;;;24.9;13.2;;;;;;;8.58;80.16309;944.1685;;;;
2022/03/17 07:41:26;;;;;;;23.1;13;;;;;;;8.89;79.69922;944.2191;;;;
2022/03/17 07:43:53;;;;;;;21.1;12.3;;;;;;;9.01;79.11719;944.2649;;;;
2022/03/17 07:46:18;;;;;;;23.6;11.9;;;;;;;9.29;78.17871;944.2422;;;;
2022/03/17 07:48:44;;;;;;;22.4;10.7;;;;;;;9.45;75.90723;944.1771;;;;
2022/03/17 07:51:08;;;;;;;19;10.2;;;;;;;9.62;76.36914;944.2137;;;;
2022/03/17 07:53:34;;;;;;;17.5;10.4;;;;;;;9.77;75.97461;944.1089;;;;
2022/03/17 07:55:59;;;;;;;28.9;10.1;;;;;;;9.93;74.68066;944.1667;;;;
2022/03/17 07:58:26;;;;;;;23.4;10.3;;;;;;;9.87;74.80762;944.1981;;;;
2022/03/17 08:00:51;;;;;;;18.3;9.4;;;;;;;10.05;74.96289;944.1696;;;;
2022/03/17 08:03:18;;;;;;;23.7;10;;;;;;;10.31;75.09961;944.2079;;;;
2022/03/17 08:05:43;;;;;;;22.4;9.9;;;;;;;10.52;73.54883;944.1654;;;;
2022/03/17 08:08:08;;;;;;;17.7;8.9;;;;;;;10.78;72.17871;944.1992;;;;
2022/03/17 08:10:34;;;;;;;22.1;8.9;;;;;;;10.86;71.94043;944.1603;;;;
2022/03/17 08:13:02;;;;;;;24.6;9.5;;;;;;;11.03;71.44336;944.1763;;;;
2022/03/17 08:15:26;;;;;;;26.6;10;;;;;;;11.18;69.80859;944.2155;;;;
2022/03/17 08:17:51;;;;;;;27.1;10.4;;;;;;;11.01;69.33594;944.2147;;;;
2022/03/17 08:20:21;;;;;;;26.8;9.3;;;;;;;10.88;70.40039;944.2173;;;;
2022/03/17 08:22:47;;;;;;;25.6;9.7;;;;;;;11.14;69.76855;944.2316;;;;
2022/03/17 08:25:17;;;;;;;22.7;9.7;;;;;;;11.04;69.48828;944.1948;;;;
2022/03/17 08:27:44;;;;;;;29;9.7;;;;;;;11.28;69.42285;944.1487;;;;
2022/03/17 08:30:09;;;;;;;31.7;10.2;;;;;;;11.54;68.68652;944.0997;;;;
2022/03/17 08:32:36;;;;;;;31.2;10.8;;;;;;;12.1;69.00586;944.1199;;;;
2022/03/17 08:35:01;;;;;;;26.9;9.5;;;;;;;12.54;66.71387;944.1497;;;;
2022/03/17 08:37:27;;;;;;;23.1;9.5;;;;;;;13.1;64.62793;944.1563;;;;
2022/03/17 08:39:52;;;;;;;27.9;9.8;;;;;;;13.47;62.60059;944.157;;;;
2022/03/17 08:42:17;;;;;;;28.3;11;;;;;;;13.62;62.10645;944.1105;;;;
2022/03/17 08:44:42;;;;;;;37.1;11.1;;;;;;;13.86;61.05859;944.1036;;;;
2022/03/17 08:49:33;;;;;;;31.2;10.3;;;;;;;14.25;59.89355;944.0806;;;;
2022/03/17 08:51:59;;;;;;;39.4;11.4;;;;;;;14.36;58.4209;944.1956;;;;
2022/03/17 08:54:25;;;;;;;38.8;11.4;;;;;;;14.27;57.88086;944.2009;;;;
2022/03/17 08:56:52;;;;;;;41.3;14.4;;;;;;;14.33;59.87988;944.1379;;;;
2022/03/17 08:59:17;;;;;;;38.4;15.2;;;;;;;14.62;58.08789;944.1583;;;;
2022/03/17 09:01:46;;;;;;;40.7;14.9;;;;;;;14.65;57.46973;944.2001;;;;
2022/03/17 09:04:14;;;;;;;36.5;12.5;;;;;;;14.97;57.73047;944.1924;;;;
2022/03/17 09:06:36;;;;;;;43;13.7;;;;;;;14.68;56.54004;944.2363;;;;
2022/03/17 09:09:02;;;;;;;47.1;15.3;;;;;;;14.92;57.40137;944.1467;;;;
2022/03/17 09:11:28;;;;;;;40.2;11;;;;;;;15.05;56.66992;944.1744;;;;
2022/03/17 09:13:58;;;;;;;36.3;10.6;;;;;;;15.16;56.11719;944.2011;;;;
2022/03/17 09:16:28;;;;;;;35.8;10;;;;;;;15.25;55.12402;944.195;;;;
2022/03/17 09:18:56;;;;;;;40;9.8;;;;;;;15.38;55.82129;944.22;;;;
2022/03/17 09:21:21;;;;;;;41.4;9.8;;;;;;;15.69;54.91504;944.2667;;;;
2022/03/17 09:23:46;;;;;;;45.5;10.6;;;;;;;16.19;52.9873;944.2086;;;;
2022/03/17 09:26:11;;;;;;;47.8;10.8;;;;;;;16.56;51.08691;944.2249;;;;
2022/03/17 09:28:39;;;;;;;37;9.7;;;;;;;16.99;50.26855;944.2744;;;;
2022/03/17 09:31:04;;;;;;;48.8;10.6;;;;;;;16.73;51.35059;944.2858;;;;
2022/03/17 09:33:32;;;;;;;41.3;9.9;;;;;;;16.67;49.60742;944.2885;;;;
2022/03/17 09:36:02;;;;;;;44.7;9.7;;;;;;;16.7;50.27051;944.323;;;;
2022/03/17 09:38:26;;;;;;;38.4;8.4;;;;;;;16.64;50.00879;944.2988;;;;
2022/03/17 09:40:53;;;;;;;37.6;9;;;;;;;16.52;49.9834;944.3214;;;;
2022/03/17 09:43:21;;;;;;;31.6;9.8;;;;;;;16.02;53.2207;944.338;;;;
2022/03/17 09:45:43;;;;;;;30.6;9.5;;;;;;;15.63;54.27148;944.3542;;;;
2022/03/17 09:48:11;;;;;;;36.5;9.9;;;;;;;15.06;57.16602;944.4568;;;;
2022/03/17 09:50:36;;;;;;;36.8;11.2;;;;;;;14.94;58.53418;944.4001;;;;
2022/03/17 09:53:01;;;;;;;36;9.7;;;;;;;15.07;57.84766;944.3886;;;;
2022/03/17 09:55:26;;;;;;;39;10.2;;;;;;;15.35;57.3418;944.4406;;;;
2022/03/17 09:57:52;;;;;;;31.6;9.5;;;;;;;15.54;56.92969;944.4547;;;;
2022/03/17 10:00:19;;;;;;;25.9;9.1;;;;;;;15.74;56.42285;944.4601;;;;
2022/03/17 10:02:44;;;;;;;28.2;9.7;;;;;;;15.52;56.40625;944.5422;;;;
2022/03/17 10:05:12;;;;;;;30.7;10.1;;;;;;;15.68;55.88379;944.55;;;;
2022/03/17 10:07:37;;;;;;;25.1;8.2;;;;;;;15.77;55.09766;944.5533;;;;
2022/03/17 10:10:03;;;;;;;40.3;9.4;;;;;;;15.74;54.58594;944.5645;;;;
2022/03/17 10:12:30;;;;;;;32.5;8.7;;;;;;;15.67;54.87793;944.6376;;;;
2022/03/17 10:14:53;;;;;;;19.9;8.5;;;;;;;15.1;57.97852;944.6663;;;;
2022/03/17 10:17:20;;;;;;;25.6;8.9;;;;;;;14.88;58.65234;944.6373;;;;
2022/03/17 10:19:45;;;;;;;25.5;9.3;;;;;;;14.59;60.14844;944.7006;;;;
2022/03/17 10:22:12;;;;;;;25.6;8.9;;;;;;;14.26;61.18457;944.6967;;;;
2022/03/17 10:24:36;;;;;;;26.6;9.6;;;;;;;14.8;59.58691;944.68;;;;
2022/03/17 10:27:01;;;;;;;30.5;10.3;;;;;;;15.1;58.11621;944.6558;;;;
2022/03/17 10:29:26;;;;;;;21.1;9.4;;;;;;;15.27;57.77148;944.6708;;;;
2022/03/17 10:31:51;;;;;;;26.9;9.4;;;;;;;15.47;56.89551;944.6907;;;;
2022/03/17 10:34:17;;;;;;;20.9;9.1;;;;;;;15.77;55.72168;944.717;;;;
2022/03/17 10:36:45;;;;;;;22.1;8.7;;;;;;;15.67;56.02148;944.697;;;;
2022/03/17 10:39:08;;;;;;;23.6;9.3;;;;;;;15.78;56.3125;944.7468;;;;
2022/03/17 10:41:33;;;;;;;21.6;9.1;;;;;;;15.48;56.73535;944.767;;;;
2022/03/17 10:43:58;;;;;;;25.5;8.7;;;;;;;15.51;56.79785;944.7645;;;;
2022/03/17 10:46:25;;;;;;;19.7;9.3;;;;;;;15.61;56.40625;944.7658;;;;
2022/03/17 10:48:50;;;;;;;22.3;7.9;;;;;;;15.54;55.94727;944.7004;;;;
2022/03/17 10:51:16;;;;;;;19.5;8.4;;;;;;;15.6;55.51563;944.7344;;;;
2022/03/17 10:53:41;;;;;;;23.6;9.5;;;;;;;15.51;55.7002;944.7766;;;;
2022/03/17 10:56:07;;;;;;;22.4;8.2;;;;;;;15.52;56.10645;944.6763;;;;
2022/03/17 10:58:31;;;;;;;21.6;8.8;;;;;;;15.26;56.1875;944.7246;;;;
2022/03/17 11:00:58;;;;;;;26.6;9.1;;;;;;;15.15;56.68164;944.6976;;;;
2022/03/17 11:03:22;;;;;;;25.4;9.1;;;;;;;14.49;58.63477;944.8179;;;;
2022/03/17 11:05:53;;;;;;;17.6;9;;;;;;;14.51;60.00879;944.7491;;;;
2022/03/17 11:08:18;;;;;;;18.3;9.3;;;;;;;14.59;59.49121;944.7983;;;;
2022/03/17 11:10:43;;;;;;;22.1;9.1;;;;;;;14.42;60.02051;944.7933;;;;
2022/03/17 11:13:09;;;;;;;20.9;9.4;;;;;;;13.83;62.88477;944.715;;;;
2022/03/17 11:15:43;;;;;;;20.2;9.5;;;;;;;14.08;62.16113;944.6682;;;;
2022/03/17 11:18:10;;;;;;;21.4;10;;;;;;;14.23;61.50195;944.7871;;;;
2022/03/17 11:20:35;;;;;;;20.8;9;;;;;;;14.13;61.64941;944.8158;;;;
2022/03/17 11:23:03;;;;;;;22.1;9.2;;;;;;;14.23;61.25977;944.8416;;;;
2022/03/17 11:25:29;;;;;;;23.1;9.9;;;;;;;14.02;62.32422;944.9095;;;;
2022/03/17 11:27:55;;;;;;;20.4;10.3;;;;;;;13.92;62.72461;944.8773;;;;
2022/03/17 11:30:21;;;;;;;21.8;11.2;;;;;;;13.19;66.04395;944.9131;;;;
2022/03/17 11:32:45;;;;;;;20.7;11.1;;;;;;;13.43;65.25195;944.9633;;;;
2022/03/17 11:35:13;;;;;;;22.5;10.6;;;;;;;13.36;65.62012;944.8823;;;;
2022/03/17 11:37:38;;;;;;;20.5;10.1;;;;;;;13.24;65.40723;944.8851;;;;
2022/03/17 11:40:04;;;;;;;20.9;10.6;;;;;;;12.91;66.95117;944.9072;;;;
2022/03/17 11:42:29;;;;;;;22.5;11.3;;;;;;;12.91;66.82813;944.9448;;;;
2022/03/17 11:44:54;;;;;;;24.5;10.3;;;;;;;12.89;67.09961;944.8942;;;;
2022/03/17 11:47:19;;;;;;;20.5;10.3;;;;;;;13.01;66.49902;944.915;;;;
2022/03/17 11:49:46;;;;;;;23.3;10.9;;;;;;;13;66.2666;944.9353;;;;
2022/03/17 11:52:11;;;;;;;18.5;10.1;;;;;;;13.06;66.39063;944.8851;;;;
2022/03/17 11:54:36;;;;;;;22.7;10.8;;;;;;;13.02;66.31543;944.8799;;;;
2022/03/17 11:57:04;;;;;;;23.7;10.6;;;;;;;12.88;66.99414;944.9213;;;;
2022/03/17 11:59:30;;;;;;;24.6;11.6;;;;;;;12.75;67.36523;944.9003;;;;
2022/03/17 12:01:53;;;;;;;24.2;10.7;;;;;;;12.64;67.71387;944.9109;;;;
2022/03/17 12:04:18;;;;;;;26.5;11.8;;;;;;;12.65;67.7041;944.9207;;;;
2022/03/17 12:06:45;;;;;;;21.5;12.1;;;;;;;12.67;67.62793;944.8786;;;;
2022/03/17 12:09:11;;;;;;;28.5;13.3;;;;;;;12.49;68.15039;944.9423;;;;
2022/03/17 12:11:38;;;;;;;25.5;12.5;;;;;;;12.59;68.05176;944.8997;;;;
2022/03/17 12:14:02;;;;;;;22.7;13.3;;;;;;;12.7;68.10254;944.9525;;;;
2022/03/17 12:16:32;;;;;;;29.4;14.3;;;;;;;12.49;69.16016;944.9336;;;;
2022/03/17 12:19:00;;;;;;;25.3;13.4;;;;;;;12.31;70.20898;945.0276;;;;
2022/03/17 12:21:23;;;;;;;27.3;14.3;;;;;;;12.29;70.35449;944.9953;;;;
2022/03/17 12:23:51;;;;;;;27.2;14.5;;;;;;;12.1;70.78223;945.0355;;;;
2022/03/17 12:26:15;;;;;;;27.4;14.3;;;;;;;12.07;71.23535;945.0023;;;;
2022/03/17 12:28:41;;;;;;;26.2;13.9;;;;;;;11.87;72.80566;945.1172;;;;
2022/03/17 12:31:06;;;;;;;22.8;13.7;;;;;;;11.91;72.45703;945.0667;;;;
2022/03/17 12:33:32;;;;;;;26.2;13.9;;;;;;;11.68;74.05566;945.1169;;;;
2022/03/17 12:35:57;;;;;;;24.4;13.5;;;;;;;11.78;73.64941;945.1121;;;;
2022/03/17 12:38:26;;;;;;;26.5;13.8;;;;;;;11.91;72.62891;945.0404;;;;
2022/03/17 12:40:53;;;;;;;25;13.9;;;;;;;12;72.12988;945.136;;;;
2022/03/17 12:43:20;;;;;;;24.3;13.5;;;;;;;12.15;71.83398;945.1026;;;;
2022/03/17 12:45:44;;;;;;;24.6;14;;;;;;;11.95;72.94727;945.1528;;;;
2022/03/17 12:48:10;;;;;;;24.9;14.4;;;;;;;11.8;73.44824;945.1319;;;;
2022/03/17 12:50:35;;;;;;;21.2;14.4;;;;;;;11.79;73.86816;945.0966;;;;
2022/03/17 12:53:02;;;;;;;23;13.2;;;;;;;11.71;74.11816;945.1764;;;;
2022/03/17 12:55:29;;;;;;;23.7;13.7;;;;;;;11.72;74.2793;945.1908;;;;
2022/03/17 12:57:56;;;;;;;23.4;13.4;;;;;;;11.55;74.91602;945.1528;;;;
2022/03/17 13:00:23;;;;;;;21.4;13.8;;;;;;;11.56;75.45313;945.1258;;;;
2022/03/17 13:02:46;;;;;;;23;13.8;;;;;;;11.57;75.61816;945.1292;;;;
2022/03/17 13:07:39;;;;;;;21.4;13.7;;;;;;;11.71;74.74902;945.1485;;;;
2022/03/17 13:10:05;;;;;;;23.1;13.7;;;;;;;11.72;74.66895;945.1685;;;;
2022/03/17 13:14:57;;;;;;;22.2;13.7;;;;;;;11.65;74.86426;945.2137;;;;
2022/03/17 13:17:22;;;;;;;23.7;13.6;;;;;;;11.78;74.58789;945.1575;;;;
2022/03/17 13:19:51;;;;;;;27.7;14.4;;;;;;;11.58;75.82422;945.1612;;;;
2022/03/17 13:22:14;;;;;;;22.3;14.8;;;;;;;11.49;76.47266;945.1947;;;;
2022/03/17 13:24:40;;;;;;;21.2;13.5;;;;;;;11.59;76.29492;945.2388;;;;
2022/03/17 13:27:05;;;;;;;22;13.4;;;;;;;11.71;75.60742;945.2219;;;;
2022/03/17 13:29:35;;;;;;;24;14.3;;;;;;;11.63;76.08398;945.168;;;;
2022/03/17 13:31:59;;;;;;;25.1;14.4;;;;;;;11.82;75.55664;945.2569;;;;
2022/03/17 13:34:24;;;;;;;21.3;13.7;;;;;;;11.94;74.44238;945.3162;;;;
2022/03/17 13:36:49;;;;;;;21.5;13.5;;;;;;;11.93;74.52344;945.2594;;;;
2022/03/17 13:39:15;;;;;;;23.7;14.4;;;;;;;11.98;74.26758;945.264;;;;
2022/03/17 13:41:40;;;;;;;23.7;14.2;;;;;;;11.97;74.64355;945.2927;;;;
2022/03/17 13:44:05;;;;;;;26.3;14.8;;;;;;;11.98;74.38379;945.1956;;;;
2022/03/17 13:46:32;;;;;;;21.5;14.1;;;;;;;12.14;73.96289;945.2405;;;;
2022/03/17 13:48:57;;;;;;;21.6;14.4;;;;;;;12.17;73.7041;945.2417;;;;
2022/03/17 13:51:22;;;;;;;21.9;14.4;;;;;;;12.22;73.19727;945.2667;;;;
2022/03/17 13:53:47;;;;;;;22.9;13.6;;;;;;;12.27;72.99805;945.2578;;;;
2022/03/17 13:56:13;;;;;;;21.3;14.8;;;;;;;12.34;72.66699;945.3299;;;;
2022/03/17 13:58:38;;;;;;;20.7;14.1;;;;;;;12.28;72.9541;945.2986;;;;
2022/03/17 14:01:05;;;;;;;23.5;15.3;;;;;;;12.13;73.38672;945.2659;;;;
2022/03/17 14:03:30;;;;;;;20.6;14.3;;;;;;;12.32;73.05371;945.3328;;;;
2022/03/17 14:05:58;;;;;;;22.6;14.1;;;;;;;12.44;72.76367;945.2988;;;;
2022/03/17 14:08:23;;;;;;;25.1;14.2;;;;;;;12.46;72.3418;945.2975;;;;
2022/03/17 14:10:50;;;;;;;23.3;14.9;;;;;;;12.3;72.86719;945.3333;;;;
2022/03/17 14:13:15;;;;;;;22.2;14.5;;;;;;;12.34;73.04492;945.2892;;;;
2022/03/17 14:15:41;;;;;;;25.3;14.1;;;;;;;12.41;72.74902;945.3128;;;;
2022/03/17 14:18:07;;;;;;;22.7;14.8;;;;;;;12.43;72.55566;945.3378;;;;
2022/03/17 14:20:35;;;;;;;21.1;13.8;;;;;;;12.41;72.93066;945.2974;;;;
2022/03/17 14:25:27;;;;;;;25.2;15.5;;;;;;;12.44;72.83398;945.2517;;;;
2022/03/17 14:27:56;;;;;;;24;15.4;;;;;;;12.54;72.44922;945.2938;;;;
2022/03/17 14:30:21;;;;;;;27;15.5;;;;;;;12.39;73.15723;945.3537;;;;
2022/03/17 14:32:47;;;;;;;22.9;16.2;;;;;;;12.25;73.83203;945.3494;;;;
2022/03/17 14:35:12;;;;;;;23.7;15.2;;;;;;;12.34;73.70996;945.3641;;;;